KIDA/IDA METAR and TAF weather

Enter ICAO airport designator
Station Type Date Time Source
KIDA METAR 2020/09/26 11:53 UTC NOAA

KIDA 261153Z AUTO 21020KT 10SM FEW070 13/07 A2993 RMK AO2 PK WND 21033/1054 SLP102 T01330067 10167 20133 55003


Station Type Date Time Source
KIDA Decoded METAR 2020/09/26 11:53 UTC NOAA

IDAHO FALLS REGIONAL AIRPORT, ID, United States (KIDA) 43-31N 112-04W 1453M
Sep 26, 2020 - 07:53 AM EDT / 2020.09.26 1153 UTC
Wind: from the SSW (210 degrees) at 23 MPH (20 KT):0
Visibility: 10 mile(s):0
Sky conditions: mostly clear
Temperature: 55.9 F (13.3 C)
Dew Point: 44.1 F (6.7 C)
Relative Humidity: 64%
Pressure (altimeter): 29.93 in. Hg (1013 hPa)
Pressure tendency: 0.01 inches (0.3 hPa) lower than three hours ago
ob: KIDA 261153Z AUTO 21020KT 10SM FEW070 13/07 A2993 RMK AO2 PK WND 21033/1054 SLP102 T01330067 10167 20133 55003
cycle: 12

Station Type Date Time Source
KIDA TAF 2020/09/26 12:22 UTC NOAA

TAF KIDA 261120Z 2612/2712 22024G34KT P6SM VCSH SCT040 OVC070
FM261800 23020G30KT P6SM FEW070 BKN120
FM270300 21010KT P6SM FEW250

Example: see airport list